sensor_id;sensor_type;location;lat;lon;timestamp;pressure;altitude;pressure_sealevel;temperature;humidity
24858;BME280;12935;50.782;6.074;2022-07-06T00:00:55;100441.84;;;14.21;100.00
24858;BME280;12935;50.782;6.074;2022-07-06T00:03:21;100442.63;;;14.25;100.00
24858;BME280;12935;50.782;6.074;2022-07-06T00:05:46;100446.56;;;14.24;100.00
24858;BME280;12935;50.782;6.074;2022-07-06T00:08:11;100442.63;;;14.21;100.00
24858;BME280;12935;50.782;6.074;2022-07-06T00:10:36;100442.25;;;14.16;100.00
24858;BME280;12935;50.782;6.074;2022-07-06T00:13:02;100452.88;;;14.14;100.00
24858;BME280;12935;50.782;6.074;2022-07-06T00:15:27;100437.53;;;14.09;100.00
24858;BME280;12935;50.782;6.074;2022-07-06T00:17:52;100442.25;;;14.01;100.00
24858;BME280;12935;50.782;6.074;2022-07-06T00:20:18;100440.31;;;13.98;100.00
24858;BME280;12935;50.782;6.074;2022-07-06T00:22:43;100434.03;;;13.94;100.00
24858;BME280;12935;50.782;6.074;2022-07-06T00:25:08;100430.88;;;13.89;100.00
24858;BME280;12935;50.782;6.074;2022-07-06T00:27:34;100430.88;;;13.85;100.00
24858;BME280;12935;50.782;6.074;2022-07-06T00:29:59;100431.28;;;13.80;100.00
24858;BME280;12935;50.782;6.074;2022-07-06T00:32:24;100422.25;;;13.69;100.00
24858;BME280;12935;50.782;6.074;2022-07-06T00:34:50;100426.56;;;13.63;100.00
24858;BME280;12935;50.782;6.074;2022-07-06T00:37:15;100435.16;;;13.54;100.00
24858;BME280;12935;50.782;6.074;2022-07-06T00:39:41;100425.75;;;13.45;100.00
24858;BME280;12935;50.782;6.074;2022-07-06T00:42:06;100419.47;;;13.41;100.00
24858;BME280;12935;50.782;6.074;2022-07-06T00:44:32;100422.22;;;13.44;100.00
24858;BME280;12935;50.782;6.074;2022-07-06T00:46:58;100432.81;;;13.42;100.00
24858;BME280;12935;50.782;6.074;2022-07-06T00:49:24;100427.31;;;13.39;100.00
24858;BME280;12935;50.782;6.074;2022-07-06T00:52:08;100410.44;;;13.19;100.00
24858;BME280;12935;50.782;6.074;2022-07-06T00:54:34;100422.22;;;13.37;100.00
24858;BME280;12935;50.782;6.074;2022-07-06T00:57:01;100420.28;;;13.55;100.00
24858;BME280;12935;50.782;6.074;2022-07-06T00:59:27;100435.19;;;13.58;100.00
24858;BME280;12935;50.782;6.074;2022-07-06T01:01:53;100428.16;;;13.67;100.00
24858;BME280;12935;50.782;6.074;2022-07-06T01:04:18;100439.50;;;13.77;100.00
24858;BME280;12935;50.782;6.074;2022-07-06T01:06:45;100443.44;;;13.76;100.00
24858;BME280;12935;50.782;6.074;2022-07-06T01:09:11;100438.75;;;13.83;100.00
24858;BME280;12935;50.782;6.074;2022-07-06T01:11:36;100437.97;;;13.83;100.00
24858;BME280;12935;50.782;6.074;2022-07-06T01:14:02;100440.28;;;13.70;100.00
24858;BME280;12935;50.782;6.074;2022-07-06T01:16:28;100441.03;;;13.42;100.00
24858;BME280;12935;50.782;6.074;2022-07-06T01:18:53;100424.94;;;13.30;100.00
24858;BME280;12935;50.782;6.074;2022-07-06T01:21:18;100432.38;;;13.15;100.00
24858;BME280;12935;50.782;6.074;2022-07-06T01:23:46;100438.56;;;13.09;100.00
24858;BME280;12935;50.782;6.074;2022-07-06T01:26:14;100433.47;;;13.00;100.00
24858;BME280;12935;50.782;6.074;2022-07-06T01:28:41;100437.03;;;13.11;100.00
24858;BME280;12935;50.782;6.074;2022-07-06T01:31:19;100435.53;;;13.21;100.00
24858;BME280;12935;50.782;6.074;2022-07-06T01:33:45;100431.53;;;13.11;100.00
24858;BME280;12935;50.782;6.074;2022-07-06T01:36:10;100430.41;;;13.19;100.00
24858;BME280;12935;50.782;6.074;2022-07-06T01:38:50;100426.53;;;13.34;100.00
24858;BME280;12935;50.782;6.074;2022-07-06T01:41:16;100437.50;;;13.42;100.00
24858;BME280;12935;50.782;6.074;2022-07-06T01:43:41;100428.50;;;13.41;100.00
24858;BME280;12935;50.782;6.074;2022-07-06T01:46:07;100427.69;;;13.41;100.00
24858;BME280;12935;50.782;6.074;2022-07-06T01:48:32;100436.38;;;13.53;100.00
24858;BME280;12935;50.782;6.074;2022-07-06T01:50:58;100433.22;;;13.58;100.00
24858;BME280;12935;50.782;6.074;2022-07-06T01:53:23;100430.09;;;13.53;100.00
24858;BME280;12935;50.782;6.074;2022-07-06T01:55:48;100431.63;;;13.43;100.00
24858;BME280;12935;50.782;6.074;2022-07-06T01:58:14;100431.63;;;13.40;100.00
24858;BME280;12935;50.782;6.074;2022-07-06T02:00:39;100429.28;;;13.34;100.00
24858;BME280;12935;50.782;6.074;2022-07-06T02:03:05;100434.38;;;13.40;100.00
24858;BME280;12935;50.782;6.074;2022-07-06T02:05:30;100425.34;;;13.39;100.00
24858;BME280;12935;50.782;6.074;2022-07-06T02:07:55;100428.47;;;13.30;100.00
24858;BME280;12935;50.782;6.074;2022-07-06T02:10:20;100415.50;;;13.24;100.00
24858;BME280;12935;50.782;6.074;2022-07-06T02:12:46;100424.94;;;13.30;100.00
24858;BME280;12935;50.782;6.074;2022-07-06T02:15:12;100431.63;;;13.43;100.00
24858;BME280;12935;50.782;6.074;2022-07-06T02:17:37;100430.06;;;13.35;100.00
24858;BME280;12935;50.782;6.074;2022-07-06T02:20:04;100427.69;;;13.19;100.00
24858;BME280;12935;50.782;6.074;2022-07-06T02:22:30;100429.25;;;13.27;100.00
24858;BME280;12935;50.782;6.074;2022-07-06T02:24:55;100433.19;;;13.30;100.00
24858;BME280;12935;50.782;6.074;2022-07-06T02:27:20;100444.19;;;13.37;100.00
24858;BME280;12935;50.782;6.074;2022-07-06T02:29:46;100439.44;;;13.27;100.00
24858;BME280;12935;50.782;6.074;2022-07-06T02:32:11;100426.88;;;13.26;100.00
24858;BME280;12935;50.782;6.074;2022-07-06T02:34:36;100424.53;;;13.24;100.00
24858;BME280;12935;50.782;6.074;2022-07-06T02:37:02;100420.22;;;13.20;100.00
24858;BME280;12935;50.782;6.074;2022-07-06T02:39:27;100411.22;;;13.26;100.00
24858;BME280;12935;50.782;6.074;2022-07-06T02:41:52;100419.84;;;13.32;100.00
24858;BME280;12935;50.782;6.074;2022-07-06T02:44:18;100418.66;;;13.19;100.00
24858;BME280;12935;50.782;6.074;2022-07-06T02:46:43;100416.63;;;13.02;100.00
24858;BME280;12935;50.782;6.074;2022-07-06T02:49:08;100418.59;;;13.08;100.00
24858;BME280;12935;50.782;6.074;2022-07-06T02:51:33;100425.63;;;12.98;100.00
24858;BME280;12935;50.782;6.074;2022-07-06T02:53:59;100434.25;;;13.00;100.00
24858;BME280;12935;50.782;6.074;2022-07-06T02:56:24;100434.59;;;12.92;100.00
24858;BME280;12935;50.782;6.074;2022-07-06T02:58:49;100427.94;;;12.86;100.00
24858;BME280;12935;50.782;6.074;2022-07-06T03:01:14;100434.63;;;12.95;100.00
24858;BME280;12935;50.782;6.074;2022-07-06T03:03:40;100433.78;;;12.81;100.00
24858;BME280;12935;50.782;6.074;2022-07-06T03:06:05;100438.84;;;12.72;100.00
24858;BME280;12935;50.782;6.074;2022-07-06T03:08:31;100430.16;;;12.59;100.00
24858;BME280;12935;50.782;6.074;2022-07-06T03:10:56;100441.53;;;12.57;100.00
24858;BME280;12935;50.782;6.074;2022-07-06T03:13:21;100434.09;;;12.65;100.00
24858;BME280;12935;50.782;6.074;2022-07-06T03:15:46;100441.56;;;12.68;100.00
24858;BME280;12935;50.782;6.074;2022-07-06T03:18:12;100441.94;;;12.67;100.00
24858;BME280;12935;50.782;6.074;2022-07-06T03:20:37;100445.06;;;12.65;100.00
24858;BME280;12935;50.782;6.074;2022-07-06T03:23:02;100452.88;;;12.63;100.00
24858;BME280;12935;50.782;6.074;2022-07-06T03:25:27;100445.47;;;12.67;100.00
24858;BME280;12935;50.782;6.074;2022-07-06T03:27:53;100446.31;;;12.75;100.00
24858;BME280;12935;50.782;6.074;2022-07-06T03:30:18;100440.72;;;12.60;100.00
24858;BME280;12935;50.782;6.074;2022-07-06T03:32:43;100455.59;;;12.56;100.00
24858;BME280;12935;50.782;6.074;2022-07-06T03:35:09;100447.78;;;12.58;100.00
24858;BME280;12935;50.782;6.074;2022-07-06T03:37:34;100442.31;;;12.58;100.00
24858;BME280;12935;50.782;6.074;2022-07-06T03:39:59;100442.72;;;12.67;100.00
24858;BME280;12935;50.782;6.074;2022-07-06T03:42:25;100437.19;;;12.53;100.00
24858;BME280;12935;50.782;6.074;2022-07-06T03:44:50;100446.50;;;12.38;100.00
24858;BME280;12935;50.782;6.074;2022-07-06T03:47:15;100457.13;;;12.50;100.00
24858;BME280;12935;50.782;6.074;2022-07-06T03:49:40;100447.38;;;12.56;100.00
24858;BME280;12935;50.782;6.074;2022-07-06T03:52:06;100450.97;;;12.67;100.00
24858;BME280;12935;50.782;6.074;2022-07-06T03:54:31;100460.00;;;12.71;100.00
24858;BME280;12935;50.782;6.074;2022-07-06T03:56:56;100452.47;;;12.54;100.00
24858;BME280;12935;50.782;6.074;2022-07-06T03:59:21;100466.94;;;12.51;100.00
24858;BME280;12935;50.782;6.074;2022-07-06T04:01:47;100456.72;;;12.48;100.00
24858;BME280;12935;50.782;6.074;2022-07-06T04:04:12;100457.97;;;12.57;100.00
24858;BME280;12935;50.782;6.074;2022-07-06T04:06:37;100466.19;;;12.57;100.00
24858;BME280;12935;50.782;6.074;2022-07-06T04:09:03;100460.72;;;12.61;100.00
24858;BME280;12935;50.782;6.074;2022-07-06T04:11:28;100460.72;;;12.57;100.00
24858;BME280;12935;50.782;6.074;2022-07-06T04:13:54;100463.88;;;12.67;100.00
24858;BME280;12935;50.782;6.074;2022-07-06T04:16:20;100456.81;;;12.62;100.00
24858;BME280;12935;50.782;6.074;2022-07-06T04:18:45;100462.28;;;12.62;100.00
24858;BME280;12935;50.782;6.074;2022-07-06T04:21:11;100465.84;;;12.66;100.00
24858;BME280;12935;50.782;6.074;2022-07-06T04:23:36;100467.44;;;12.71;100.00
24858;BME280;12935;50.782;6.074;2022-07-06T04:26:01;100458.81;;;12.72;100.00
24858;BME280;12935;50.782;6.074;2022-07-06T04:28:27;100439.19;;;12.67;100.00
24858;BME280;12935;50.782;6.074;2022-07-06T04:30:52;100473.31;;;12.76;100.00
24858;BME280;12935;50.782;6.074;2022-07-06T04:33:17;100465.91;;;12.80;100.00
24858;BME280;12935;50.782;6.074;2022-07-06T04:35:43;100473.81;;;12.96;100.00
24858;BME280;12935;50.782;6.074;2022-07-06T04:38:08;100465.19;;;12.94;100.00
24858;BME280;12935;50.782;6.074;2022-07-06T04:40:33;100469.16;;;13.04;100.00
24858;BME280;12935;50.782;6.074;2022-07-06T04:42:59;100469.53;;;13.09;100.00
24858;BME280;12935;50.782;6.074;2022-07-06T04:45:24;100476.22;;;13.12;100.00
24858;BME280;12935;50.782;6.074;2022-07-06T04:47:50;100473.47;;;13.08;100.00
24858;BME280;12935;50.782;6.074;2022-07-06T04:50:15;100484.38;;;12.94;100.00
24858;BME280;12935;50.782;6.074;2022-07-06T04:52:40;100467.91;;;12.94;100.00
24858;BME280;12935;50.782;6.074;2022-07-06T04:55:06;100470.72;;;13.05;100.00
24858;BME280;12935;50.782;6.074;2022-07-06T04:57:34;100470.66;;;12.90;100.00
24858;BME280;12935;50.782;6.074;2022-07-06T04:59:59;100480.44;;;12.91;100.00
24858;BME280;12935;50.782;6.074;2022-07-06T05:02:24;100481.22;;;12.85;100.00
24858;BME280;12935;50.782;6.074;2022-07-06T05:04:50;100472.63;;;12.90;100.00
24858;BME280;12935;50.782;6.074;2022-07-06T05:07:16;100470.69;;;12.97;100.00
24858;BME280;12935;50.782;6.074;2022-07-06T05:09:41;100475.44;;;13.11;100.00
24858;BME280;12935;50.782;6.074;2022-07-06T05:12:07;100466.81;;;13.09;100.00
24858;BME280;12935;50.782;6.074;2022-07-06T05:14:33;100452.28;;;13.02;100.00
24858;BME280;12935;50.782;6.074;2022-07-06T05:16:58;100470.00;;;13.18;100.00
24858;BME280;12935;50.782;6.074;2022-07-06T05:19:23;100464.53;;;13.22;100.00
24858;BME280;12935;50.782;6.074;2022-07-06T05:21:49;100471.19;;;13.24;100.00
24858;BME280;12935;50.782;6.074;2022-07-06T05:24:14;100463.34;;;13.26;100.00
24858;BME280;12935;50.782;6.074;2022-07-06T05:26:41;100476.72;;;13.35;100.00
24858;BME280;12935;50.782;6.074;2022-07-06T05:29:06;100469.28;;;13.36;100.00
24858;BME280;12935;50.782;6.074;2022-07-06T05:31:32;100465.72;;;13.28;100.00
24858;BME280;12935;50.782;6.074;2022-07-06T05:33:57;100481.81;;;13.29;100.00
24858;BME280;12935;50.782;6.074;2022-07-06T05:36:22;100479.47;;;13.31;100.00
24858;BME280;12935;50.782;6.074;2022-07-06T05:38:47;100488.50;;;13.43;100.00
24858;BME280;12935;50.782;6.074;2022-07-06T05:41:13;100491.66;;;13.48;100.00
24858;BME280;12935;50.782;6.074;2022-07-06T05:43:38;100485.41;;;13.62;100.00
24858;BME280;12935;50.782;6.074;2022-07-06T05:46:04;100487.75;;;13.60;100.00
24858;BME280;12935;50.782;6.074;2022-07-06T05:48:29;100485.44;;;13.69;100.00
24858;BME280;12935;50.782;6.074;2022-07-06T05:51:13;100485.03;;;13.74;100.00
24858;BME280;12935;50.782;6.074;2022-07-06T05:53:39;100491.69;;;13.73;100.00
24858;BME280;12935;50.782;6.074;2022-07-06T05:56:04;100488.97;;;13.80;100.00
24858;BME280;12935;50.782;6.074;2022-07-06T05:58:29;100483.47;;;13.77;100.00
24858;BME280;12935;50.782;6.074;2022-07-06T06:00:55;100496.06;;;13.85;100.00
24858;BME280;12935;50.782;6.074;2022-07-06T06:03:20;100489.34;;;13.89;100.00
24858;BME280;12935;50.782;6.074;2022-07-06T06:05:45;100496.44;;;13.97;100.00
24858;BME280;12935;50.782;6.074;2022-07-06T06:08:11;100500.38;;;14.11;100.00
24858;BME280;12935;50.782;6.074;2022-07-06T06:10:36;100498.38;;;14.18;100.00
24858;BME280;12935;50.782;6.074;2022-07-06T06:13:01;100491.75;;;14.16;100.00
24858;BME280;12935;50.782;6.074;2022-07-06T06:15:27;100496.44;;;14.15;100.00
24858;BME280;12935;50.782;6.074;2022-07-06T06:17:53;100493.28;;;14.34;100.00
24858;BME280;12935;50.782;6.074;2022-07-06T06:20:18;100499.19;;;14.26;100.00
24858;BME280;12935;50.782;6.074;2022-07-06T06:22:48;100488.19;;;14.22;100.00
24858;BME280;12935;50.782;6.074;2022-07-06T06:25:14;100488.97;;;14.23;100.00
24858;BME280;12935;50.782;6.074;2022-07-06T06:27:41;100494.06;;;14.28;100.00
24858;BME280;12935;50.782;6.074;2022-07-06T06:30:07;100489.38;;;14.46;100.00
24858;BME280;12935;50.782;6.074;2022-07-06T06:32:32;100489.75;;;14.59;100.00
24858;BME280;12935;50.782;6.074;2022-07-06T06:34:57;100498.38;;;14.61;100.00
24858;BME280;12935;50.782;6.074;2022-07-06T06:37:23;100502.28;;;14.67;100.00
24858;BME280;12935;50.782;6.074;2022-07-06T06:39:48;100497.59;;;14.60;100.00
24858;BME280;12935;50.782;6.074;2022-07-06T06:42:13;100503.50;;;14.59;100.00
24858;BME280;12935;50.782;6.074;2022-07-06T06:44:38;100505.06;;;14.63;100.00
24858;BME280;12935;50.782;6.074;2022-07-06T06:47:04;100508.16;;;14.69;100.00
24858;BME280;12935;50.782;6.074;2022-07-06T06:49:29;100511.72;;;14.77;100.00
24858;BME280;12935;50.782;6.074;2022-07-06T06:51:54;100513.63;;;14.87;100.00
24858;BME280;12935;50.782;6.074;2022-07-06T06:54:19;100519.47;;;15.06;100.00
24858;BME280;12935;50.782;6.074;2022-07-06T06:56:45;100511.50;;;15.30;100.00
24858;BME280;12935;50.782;6.074;2022-07-06T06:59:10;100515.28;;;15.61;100.00
24858;BME280;12935;50.782;6.074;2022-07-06T07:01:35;100515.66;;;15.70;99.02
24858;BME280;12935;50.782;6.074;2022-07-06T07:04:01;100507.78;;;15.68;96.32
24858;BME280;12935;50.782;6.074;2022-07-06T07:06:26;100512.00;;;15.84;96.53
24858;BME280;12935;50.782;6.074;2022-07-06T07:08:51;100508.91;;;15.74;93.98
24858;BME280;12935;50.782;6.074;2022-07-06T07:11:17;100511.59;;;15.89;94.06
24858;BME280;12935;50.782;6.074;2022-07-06T07:13:42;100506.69;;;16.07;90.78
24858;BME280;12935;50.782;6.074;2022-07-06T07:16:07;100504.31;;;16.09;90.95
24858;BME280;12935;50.782;6.074;2022-07-06T07:18:33;100503.09;;;16.17;85.19
24858;BME280;12935;50.782;6.074;2022-07-06T07:20:58;100502.34;;;16.09;83.27
24858;BME280;12935;50.782;6.074;2022-07-06T07:23:23;100506.03;;;15.92;83.27
24858;BME280;12935;50.782;6.074;2022-07-06T07:25:48;100512.72;;;15.91;85.83
24858;BME280;12935;50.782;6.074;2022-07-06T07:28:14;100504.03;;;15.96;86.37
24858;BME280;12935;50.782;6.074;2022-07-06T07:30:39;100510.13;;;15.73;84.24
24858;BME280;12935;50.782;6.074;2022-07-06T07:33:05;100514.78;;;15.76;84.75
24858;BME280;12935;50.782;6.074;2022-07-06T07:35:30;100508.09;;;15.81;87.00
24858;BME280;12935;50.782;6.074;2022-07-06T08:05:00;100482.88;;;16.27;84.39
24858;BME280;12935;50.782;6.074;2022-07-06T08:07:25;100504.22;;;16.68;82.09
24858;BME280;12935;50.782;6.074;2022-07-06T08:09:50;100502.63;;;17.01;80.25
24858;BME280;12935;50.782;6.074;2022-07-06T08:12:16;100512.00;;;16.76;74.50
24858;BME280;12935;50.782;6.074;2022-07-06T08:14:41;100499.78;;;16.74;76.31
24858;BME280;12935;50.782;6.074;2022-07-06T08:17:06;100501.19;;;16.52;72.91
24858;BME280;12935;50.782;6.074;2022-07-06T08:19:32;100499.84;;;16.26;73.98
24858;BME280;12935;50.782;6.074;2022-07-06T08:21:57;100507.34;;;16.25;75.10
24858;BME280;12935;50.782;6.074;2022-07-06T08:24:22;100507.06;;;16.12;75.16
24858;BME280;12935;50.782;6.074;2022-07-06T08:26:48;100512.56;;;16.12;77.54
24858;BME280;12935;50.782;6.074;2022-07-06T08:29:13;100512.03;;;16.28;76.94
24858;BME280;12935;50.782;6.074;2022-07-06T08:31:38;100521.47;;;16.34;75.28
24858;BME280;12935;50.782;6.074;2022-07-06T08:34:04;100509.22;;;16.35;74.91
24858;BME280;12935;50.782;6.074;2022-07-06T08:36:29;100505.47;;;16.56;73.43
24858;BME280;12935;50.782;6.074;2022-07-06T08:38:54;100512.03;;;16.73;73.10
24858;BME280;12935;50.782;6.074;2022-07-06T08:41:21;100506.13;;;16.71;71.82
24858;BME280;12935;50.782;6.074;2022-07-06T08:43:49;100505.97;;;16.85;71.26
24858;BME280;12935;50.782;6.074;2022-07-06T08:46:15;100504.16;;;17.05;72.10
24858;BME280;12935;50.782;6.074;2022-07-06T08:48:41;100507.63;;;17.13;71.53
24858;BME280;12935;50.782;6.074;2022-07-06T08:51:06;100500.59;;;17.08;71.29
24858;BME280;12935;50.782;6.074;2022-07-06T08:53:32;100508.50;;;17.06;71.88
24858;BME280;12935;50.782;6.074;2022-07-06T08:55:58;100504.59;;;17.00;70.44
24858;BME280;12935;50.782;6.074;2022-07-06T08:58:26;100509.22;;;17.14;70.66
24858;BME280;12935;50.782;6.074;2022-07-06T09:00:56;100507.22;;;17.45;70.31
24858;BME280;12935;50.782;6.074;2022-07-06T09:03:22;100505.28;;;17.72;69.23
24858;BME280;12935;50.782;6.074;2022-07-06T09:05:48;100510.88;;;17.65;69.42
24858;BME280;12935;50.782;6.074;2022-07-06T09:08:15;100511.44;;;17.53;68.72
24858;BME280;12935;50.782;6.074;2022-07-06T09:10:40;100514.78;;;17.41;67.86
24858;BME280;12935;50.782;6.074;2022-07-06T09:13:07;100514.34;;;17.42;68.81
24858;BME280;12935;50.782;6.074;2022-07-06T09:15:37;100518.47;;;17.31;67.59
24858;BME280;12935;50.782;6.074;2022-07-06T09:18:06;100510.97;;;17.31;67.54
24858;BME280;12935;50.782;6.074;2022-07-06T09:20:33;100504.22;;;17.63;66.38
24858;BME280;12935;50.782;6.074;2022-07-06T09:23:00;100506.41;;;17.75;65.93
24858;BME280;12935;50.782;6.074;2022-07-06T09:25:26;100505.28;;;17.72;63.23
24858;BME280;12935;50.782;6.074;2022-07-06T09:27:53;100497.13;;;17.62;62.68
24858;BME280;12935;50.782;6.074;2022-07-06T09:30:22;100500.66;;;17.62;62.57
24858;BME280;12935;50.782;6.074;2022-07-06T09:32:49;100495.09;;;17.66;62.61
24858;BME280;12935;50.782;6.074;2022-07-06T09:35:23;100504.13;;;17.70;62.16
24858;BME280;12935;50.782;6.074;2022-07-06T09:38:08;100500.50;;;18.00;60.95
24858;BME280;12935;50.782;6.074;2022-07-06T09:40:36;100504.41;;;18.02;60.95
24858;BME280;12935;50.782;6.074;2022-07-06T09:43:12;100501.41;;;18.16;60.90
24858;BME280;12935;50.782;6.074;2022-07-06T09:45:39;100504.97;;;18.40;60.69
24858;BME280;12935;50.782;6.074;2022-07-06T09:48:19;100503.31;;;18.43;59.51
24858;BME280;12935;50.782;6.074;2022-07-06T09:50:51;100507.09;;;18.76;59.49
24858;BME280;12935;50.782;6.074;2022-07-06T09:53:19;100506.41;;;18.72;58.19
24858;BME280;12935;50.782;6.074;2022-07-06T09:55:46;100510.53;;;18.60;56.03
24858;BME280;12935;50.782;6.074;2022-07-06T09:58:12;100507.81;;;19.00;55.15
24858;BME280;12935;50.782;6.074;2022-07-06T10:00:37;100504.91;;;18.87;56.04
24858;BME280;12935;50.782;6.074;2022-07-06T10:03:04;100509.94;;;18.72;55.58
24858;BME280;12935;50.782;6.074;2022-07-06T10:05:30;100503.53;;;18.75;55.79
24858;BME280;12935;50.782;6.074;2022-07-06T10:07:58;100506.38;;;19.31;56.16
24858;BME280;12935;50.782;6.074;2022-07-06T10:10:28;100502.44;;;19.48;54.01
24858;BME280;12935;50.782;6.074;2022-07-06T10:12:58;100504.63;;;19.57;52.08
24858;BME280;12935;50.782;6.074;2022-07-06T10:15:25;100498.84;;;19.68;51.89
24858;BME280;12935;50.782;6.074;2022-07-06T10:17:51;100505.84;;;19.56;51.84
24858;BME280;12935;50.782;6.074;2022-07-06T10:20:18;100507.81;;;20.08;52.32
24858;BME280;12935;50.782;6.074;2022-07-06T10:22:46;100503.31;;;20.30;51.13
24858;BME280;12935;50.782;6.074;2022-07-06T10:25:13;100489.94;;;20.41;49.91
24858;BME280;12935;50.782;6.074;2022-07-06T10:27:40;100499.47;;;20.56;48.39
24858;BME280;12935;50.782;6.074;2022-07-06T10:30:08;100492.28;;;21.00;49.93
24858;BME280;12935;50.782;6.074;2022-07-06T10:32:34;100494.94;;;21.33;48.84
24858;BME280;12935;50.782;6.074;2022-07-06T10:35:00;100492.59;;;21.31;46.75
24858;BME280;12935;50.782;6.074;2022-07-06T10:37:27;100487.81;;;21.83;48.39
24858;BME280;12935;50.782;6.074;2022-07-06T10:39:53;100499.78;;;22.30;48.45
24858;BME280;12935;50.782;6.074;2022-07-06T10:42:49;100487.91;;;22.52;46.57
24858;BME280;12935;50.782;6.074;2022-07-06T10:53:20;100486.19;;;21.06;44.47
24858;BME280;12935;50.782;6.074;2022-07-06T10:55:47;100482.06;;;20.69;44.86
24858;BME280;12935;50.782;6.074;2022-07-06T10:58:15;100489.13;;;20.57;45.43
24858;BME280;12935;50.782;6.074;2022-07-06T11:00:54;100494.03;;;20.65;45.72
24858;BME280;12935;50.782;6.074;2022-07-06T11:11:41;100472.03;;;21.00;46.00
24858;BME280;12935;50.782;6.074;2022-07-06T11:14:09;100487.53;;;21.14;45.60
24858;BME280;12935;50.782;6.074;2022-07-06T11:16:40;100492.53;;;21.06;45.50
24858;BME280;12935;50.782;6.074;2022-07-06T11:21:56;100499.81;;;20.87;46.12
24858;BME280;12935;50.782;6.074;2022-07-06T11:24:27;100488.25;;;20.60;47.11
24858;BME280;12935;50.782;6.074;2022-07-06T11:26:53;100491.13;;;20.85;46.82
24858;BME280;12935;50.782;6.074;2022-07-06T11:29:21;100492.81;;;21.24;45.20
24858;BME280;12935;50.782;6.074;2022-07-06T11:31:48;100485.69;;;21.23;45.11
24858;BME280;12935;50.782;6.074;2022-07-06T11:34:18;100482.41;;;21.12;45.14
24858;BME280;12935;50.782;6.074;2022-07-06T11:36:44;100488.03;;;20.96;45.04
24858;BME280;12935;50.782;6.074;2022-07-06T11:39:09;100484.31;;;20.74;45.01
24858;BME280;12935;50.782;6.074;2022-07-06T11:41:34;100490.34;;;20.56;46.10
24858;BME280;12935;50.782;6.074;2022-07-06T11:44:00;100494.00;;;20.53;46.21
24858;BME280;12935;50.782;6.074;2022-07-06T11:46:32;100493.47;;;20.58;45.52
24858;BME280;12935;50.782;6.074;2022-07-06T11:49:01;100491.47;;;20.58;45.64
24858;BME280;12935;50.782;6.074;2022-07-06T11:51:28;100485.88;;;20.75;45.91
24858;BME280;12935;50.782;6.074;2022-07-06T11:53:56;100487.50;;;21.01;46.18
24858;BME280;12935;50.782;6.074;2022-07-06T11:56:22;100480.25;;;20.91;45.61
24858;BME280;12935;50.782;6.074;2022-07-06T11:58:52;100473.06;;;21.06;45.79
24858;BME280;12935;50.782;6.074;2022-07-06T12:01:18;100477.09;;;21.18;46.25
24858;BME280;12935;50.782;6.074;2022-07-06T12:03:44;100476.75;;;21.16;44.71
24858;BME280;12935;50.782;6.074;2022-07-06T12:06:16;100481.03;;;21.46;44.51
24858;BME280;12935;50.782;6.074;2022-07-06T12:08:47;100469.72;;;21.11;44.18
24858;BME280;12935;50.782;6.074;2022-07-06T12:11:32;100475.34;;;20.95;44.61
24858;BME280;12935;50.782;6.074;2022-07-06T12:14:12;100475.53;;;20.75;45.00
24858;BME280;12935;50.782;6.074;2022-07-06T12:16:38;100477.81;;;20.64;45.59
24858;BME280;12935;50.782;6.074;2022-07-06T12:19:05;100461.31;;;20.73;46.06
24858;BME280;12935;50.782;6.074;2022-07-06T12:21:31;100463.59;;;20.91;44.71
24858;BME280;12935;50.782;6.074;2022-07-06T12:23:57;100460.38;;;21.05;44.95
24858;BME280;12935;50.782;6.074;2022-07-06T12:26:24;100453.13;;;21.37;45.34
24858;BME280;12935;50.782;6.074;2022-07-06T12:31:36;100442.00;;;21.24;45.27
24858;BME280;12935;50.782;6.074;2022-07-06T12:34:02;100452.03;;;20.92;45.26
24858;BME280;12935;50.782;6.074;2022-07-06T12:36:28;100452.47;;;20.91;45.59
24858;BME280;12935;50.782;6.074;2022-07-06T12:38:53;100453.97;;;20.79;45.50
24858;BME280;12935;50.782;6.074;2022-07-06T12:44:00;100447.50;;;21.11;45.26
24858;BME280;12935;50.782;6.074;2022-07-06T12:46:30;100443.38;;;21.03;45.14
24858;BME280;12935;50.782;6.074;2022-07-06T12:48:57;100443.38;;;21.03;45.23
24858;BME280;12935;50.782;6.074;2022-07-06T12:51:23;100438.38;;;21.11;45.65
24858;BME280;12935;50.782;6.074;2022-07-06T12:53:49;100439.09;;;21.27;44.39
24858;BME280;12935;50.782;6.074;2022-07-06T12:56:15;100439.22;;;21.37;44.04
24858;BME280;12935;50.782;6.074;2022-07-06T12:58:57;100432.84;;;21.87;43.53
24858;BME280;12935;50.782;6.074;2022-07-06T13:01:23;100432.41;;;22.23;43.19
24858;BME280;12935;50.782;6.074;2022-07-06T13:03:53;100427.84;;;21.69;43.33
24858;BME280;12935;50.782;6.074;2022-07-06T13:06:39;100431.47;;;22.38;43.68
24858;BME280;12935;50.782;6.074;2022-07-06T13:09:04;100438.56;;;22.96;42.57
24858;BME280;12935;50.782;6.074;2022-07-06T13:11:29;100431.16;;;23.33;41.06
24858;BME280;12935;50.782;6.074;2022-07-06T13:13:55;100430.47;;;23.20;40.83
24858;BME280;12935;50.782;6.074;2022-07-06T13:16:21;100424.72;;;23.45;41.63
24858;BME280;12935;50.782;6.074;2022-07-06T13:18:49;100435.34;;;23.59;40.72
24858;BME280;12935;50.782;6.074;2022-07-06T13:21:14;100447.19;;;23.91;39.96
24858;BME280;12935;50.782;6.074;2022-07-06T13:23:39;100427.41;;;24.53;39.90
24858;BME280;12935;50.782;6.074;2022-07-06T13:26:05;100425.25;;;25.59;37.48
24858;BME280;12935;50.782;6.074;2022-07-06T13:28:30;100428.78;;;27.58;33.55
24858;BME280;12935;50.782;6.074;2022-07-06T13:30:55;100426.50;;;28.84;32.43
24858;BME280;12935;50.782;6.074;2022-07-06T13:33:21;100421.94;;;30.62;30.55